Time;durP1;ratioP1;P1;durP2;ratioP2;P2;SDS_P1;SDS_P2;PMS_P1;PMS_P2;Temp;Humidity;BMP_temperature;BMP_pressure;BME280_temperature;BME280_humidity;BME280_pressure;Samples;Min_cycle;Max_cycle;Signal;HPM_P1;HPM_P2
2021/01/20 00:02:21;;;;;;;0.30;0.30;;;;;;;6.72;70.39;99027.78;5017476;23;20257;-82
2021/01/20 00:04:53;;;;;;;0.30;0.30;;;;;;;6.95;70.30;99073.38;5028946;23;20449;-82
2021/01/20 00:07:26;;;;;;;0.30;0.30;;;;;;;6.85;70.84;99073.00;5033151;23;20229;-82
2021/01/20 00:10:15;;;;;;;0.30;0.30;;;;;;;6.89;71.18;99077.69;5037341;28;20247;-82
2021/01/20 00:13:12;;;;;;;0.30;0.30;;;;;;;6.79;70.92;99063.19;5036729;28;20244;-81
2021/01/20 00:15:46;;;;;;;0.30;0.30;;;;;;;6.87;71.12;99069.09;5043578;23;20237;-82
2021/01/20 00:19:38;;;;;;;0.30;0.30;;;;;;;7.01;71.86;99080.50;4976922;29;20269;-82
2021/01/20 00:22:28;;;;;;;0.30;0.30;;;;;;;7.04;72.06;99086.25;5084807;23;20777;-82
2021/01/20 00:25:03;;;;;;;0.30;0.30;;;;;;;6.93;71.69;99089.56;5033714;23;20233;-82
2021/01/20 00:27:35;;;;;;;0.30;0.30;;;;;;;6.88;72.61;99084.03;5037313;28;20225;-82
2021/01/20 00:33:38;;;;;;;0.30;0.30;;;;;;;6.85;72.48;99092.47;4996591;23;20221;-81
2021/01/20 00:36:17;;;;;;;0.30;0.30;;;;;;;6.69;73.13;99081.41;5038988;28;20221;-82
2021/01/20 00:39:40;;;;;;;0.30;0.30;;;;;;;6.77;72.60;99105.97;5071421;23;20212;-82
2021/01/20 00:42:29;;;;;;;0.30;0.30;;;;;;;6.72;73.31;99092.47;5041345;23;20237;-82
2021/01/20 00:45:19;;;;;;;0.30;0.30;;;;;;;6.75;73.44;99097.41;5038942;23;20226;-82
2021/01/20 00:48:17;;;;;;;0.30;0.30;;;;;;;6.66;73.32;99084.50;5025910;23;20320;-82
2021/01/20 00:51:21;;;;;;;0.30;0.30;;;;;;;6.72;74.43;99094.34;5017620;28;20226;-82
2021/01/20 00:54:07;;;;;;;0.30;0.30;;;;;;;6.60;74.61;99076.31;5043293;23;20235;-82
2021/01/20 00:57:12;;;;;;;0.40;0.40;;;;;;;6.69;74.76;99098.22;5124228;23;20204;-82
2021/01/20 01:00:15;;;;;;;0.30;0.30;;;;;;;6.58;75.08;99097.00;5026177;23;20239;-83
2021/01/20 01:02:49;;;;;;;0.30;0.30;;;;;;;6.56;75.85;99103.56;5055904;28;20228;-82
2021/01/20 01:05:39;;;;;;;0.30;0.30;;;;;;;6.57;75.59;99105.22;5024611;28;20304;-82
2021/01/20 01:08:07;;;;;;;0.33;0.33;;;;;;;6.60;76.36;99112.75;5021749;23;21106;-83
2021/01/20 01:11:02;;;;;;;0.30;0.30;;;;;;;6.53;76.58;99125.28;5000794;23;20281;-83
2021/01/20 01:13:52;;;;;;;0.30;0.30;;;;;;;6.35;77.50;99107.25;5090136;23;20233;-83
2021/01/20 01:17:17;;;;;;;0.30;0.30;;;;;;;6.47;77.29;99108.28;5025809;28;20193;-83
2021/01/20 01:20:56;;;;;;;0.30;0.30;;;;;;;6.45;77.66;99126.28;5038280;28;20212;-83
2021/01/20 01:23:48;;;;;;;0.40;0.40;;;;;;;6.20;78.65;99086.16;5208742;23;20229;-84
2021/01/20 01:26:36;;;;;;;0.40;0.40;;;;;;;6.20;79.13;99109.31;5057881;28;20228;-83
2021/01/20 01:29:11;;;;;;;0.30;0.30;;;;;;;6.32;79.12;99117.47;5169279;23;20365;-83
2021/01/20 01:32:13;;;;;;;0.30;0.30;;;;;;;6.27;79.04;99111.94;5029585;23;20237;-83
2021/01/20 01:34:47;;;;;;;0.30;0.30;;;;;;;6.25;79.83;99111.34;5007226;28;20236;-83
2021/01/20 01:38:06;;;;;;;0.30;0.30;;;;;;;6.26;79.54;99118.28;5034678;23;20244;-84
2021/01/20 01:40:40;;;;;;;0.30;0.30;;;;;;;6.18;79.45;99108.69;5045464;28;20236;-83
2021/01/20 01:44:24;;;;;;;0.30;0.30;;;;;;;6.12;78.97;99086.38;5032637;23;20259;-83
2021/01/20 01:47:30;;;;;;;0.30;0.30;;;;;;;6.24;78.35;99085.78;5064530;22;20284;-83
2021/01/20 01:50:20;;;;;;;0.40;0.40;;;;;;;6.55;77.48;99088.59;5048490;23;20258;-83
2021/01/20 01:53:05;;;;;;;0.40;0.40;;;;;;;6.45;77.97;99099.66;5041302;28;20201;-83
2021/01/20 01:56:00;;;;;;;0.30;0.30;;;;;;;6.36;77.76;99082.28;5142353;22;20248;-83
2021/01/20 01:58:51;;;;;;;0.33;0.33;;;;;;;6.51;77.16;99084.72;5045628;23;20244;-83
2021/01/20 02:02:04;;;;;;;0.30;0.30;;;;;;;6.54;77.66;99094.94;5037072;28;20219;-83
2021/01/20 02:11:38;;;;;;;0.40;0.40;;;;;;;6.49;77.35;99097.41;5025254;22;20304;-84
2021/01/20 02:15:22;;;;;;;0.30;0.30;;;;;;;6.64;76.81;99092.69;5128809;23;20241;-83
2021/01/20 02:18:41;;;;;;;0.30;0.30;;;;;;;6.61;76.54;99101.91;5018626;28;20180;-83
2021/01/20 02:22:13;;;;;;;0.30;0.30;;;;;;;6.69;76.85;99110.69;5000140;28;20232;-83
2021/01/20 02:25:28;;;;;;;0.30;0.30;;;;;;;6.70;76.41;99110.50;5018405;28;20233;-83
2021/01/20 02:28:46;;;;;;;0.30;0.30;;;;;;;6.70;76.50;99085.72;5124794;23;20259;-83
2021/01/20 02:32:52;;;;;;;0.30;0.30;;;;;;;6.76;76.18;99092.88;5042288;23;20216;-82
2021/01/20 02:36:43;;;;;;;0.30;0.30;;;;;;;6.81;76.53;99085.88;5116818;23;20298;-83
2021/01/20 02:39:59;;;;;;;0.30;0.30;;;;;;;6.76;76.52;99079.56;5032257;23;20251;-83
2021/01/20 02:43:00;;;;;;;0.30;0.30;;;;;;;6.79;76.57;99085.28;5052065;23;20244;-83
2021/01/20 02:49:35;;;;;;;0.30;0.30;;;;;;;6.77;76.15;99084.66;5037071;22;20243;-82
2021/01/20 02:52:38;;;;;;;0.40;0.40;;;;;;;6.81;76.12;99091.22;5059001;23;20212;-83
2021/01/20 02:56:03;;;;;;;0.30;0.30;;;;;;;6.83;75.62;99077.69;5020362;23;20225;-83
2021/01/20 02:59:27;;;;;;;0.30;0.30;;;;;;;6.87;76.00;99073.59;4964693;28;20312;-82
2021/01/20 03:02:54;;;;;;;0.30;0.30;;;;;;;6.79;76.23;99066.66;5005139;28;20209;-82
2021/01/20 03:05:32;;;;;;;0.30;0.30;;;;;;;6.80;76.15;99062.16;5060415;23;20224;-83
2021/01/20 03:08:24;;;;;;;0.23;0.23;;;;;;;6.75;76.05;99065.44;5124943;23;20220;-82
2021/01/20 03:10:53;;;;;;;0.40;0.40;;;;;;;6.68;75.36;99066.47;5036082;28;20259;-83
2021/01/20 03:13:49;;;;;;;0.30;0.30;;;;;;;6.56;75.99;99059.13;5035851;28;20239;-82
2021/01/20 03:16:32;;;;;;;0.30;0.30;;;;;;;6.36;76.01;99055.66;5011892;23;20233;-83
2021/01/20 03:19:15;;;;;;;0.30;0.30;;;;;;;6.19;76.51;99049.16;5043475;23;20239;-82
2021/01/20 03:21:54;;;;;;;0.30;0.30;;;;;;;6.14;77.09;99054.25;5059970;28;20231;-83
2021/01/20 03:24:26;;;;;;;0.30;0.30;;;;;;;6.01;76.67;99040.97;5053312;23;20260;-83
2021/01/20 03:27:06;;;;;;;0.30;0.30;;;;;;;6.00;77.29;99060.59;5040166;23;20228;-83
2021/01/20 03:29:43;;;;;;;0.40;0.40;;;;;;;5.78;77.64;99043.16;5039522;28;20196;-83
2021/01/20 03:32:34;;;;;;;0.30;0.30;;;;;;;5.71;77.57;99059.91;5037026;28;20284;-83
2021/01/20 03:35:14;;;;;;;0.30;0.30;;;;;;;5.62;78.11;99065.63;5037377;28;20229;-82
2021/01/20 03:37:45;;;;;;;0.30;0.30;;;;;;;5.49;77.65;99063.75;5038322;28;20232;-83
2021/01/20 03:40:36;;;;;;;0.30;0.30;;;;;;;5.26;77.80;99076.56;5060929;23;20192;-82
2021/01/20 03:43:04;;;;;;;0.40;0.40;;;;;;;5.07;78.69;99083.44;5068797;23;20294;-82
2021/01/20 03:46:14;;;;;;;0.40;0.40;;;;;;;4.77;79.22;99060.81;5142239;22;20199;-82
2021/01/20 03:49:08;;;;;;;0.40;0.40;;;;;;;4.77;79.89;99080.22;5066266;23;20223;-83
2021/01/20 03:51:41;;;;;;;0.40;0.40;;;;;;;4.53;80.73;99071.88;5043913;23;20259;-82
2021/01/20 03:57:00;;;;;;;0.30;0.30;;;;;;;4.48;81.94;99069.81;5027813;23;20306;-82
2021/01/20 03:59:30;;;;;;;0.40;0.40;;;;;;;4.54;82.11;99087.63;5057653;23;20238;-82
2021/01/20 04:02:40;;;;;;;0.30;0.30;;;;;;;4.41;82.67;99083.03;5019536;28;20212;-82
2021/01/20 04:05:46;;;;;;;0.37;0.37;;;;;;;4.20;82.97;99056.56;5043172;23;20241;-82
2021/01/20 04:09:10;;;;;;;0.40;0.40;;;;;;;4.33;82.85;99079.72;5034154;23;20244;-82
2021/01/20 04:11:39;;;;;;;0.40;0.40;;;;;;;4.18;83.08;99061.25;5039915;23;20236;-82
2021/01/20 04:14:12;;;;;;;0.30;0.30;;;;;;;4.14;83.49;99062.66;5008853;28;20219;-82
2021/01/20 04:16:45;;;;;;;0.27;0.27;;;;;;;4.22;83.78;99069.63;5046594;23;20220;-82
2021/01/20 04:19:39;;;;;;;0.30;0.30;;;;;;;4.18;84.04;99076.34;5038098;28;20635;-82
2021/01/20 04:22:26;;;;;;;0.40;0.40;;;;;;;4.15;84.01;99072.25;5053789;22;20215;-82
2021/01/20 04:25:17;;;;;;;0.30;0.30;;;;;;;4.12;83.88;99066.50;5064928;22;20243;-81
2021/01/20 04:28:13;;;;;;;0.40;0.40;;;;;;;4.03;83.45;99057.84;5058042;28;20239;-82
2021/01/20 04:31:07;;;;;;;0.40;0.40;;;;;;;3.97;83.57;99058.63;5077952;23;20239;-82
2021/01/20 04:33:48;;;;;;;0.30;0.30;;;;;;;3.91;83.39;99064.69;5033573;22;20222;-83
2021/01/20 04:37:10;;;;;;;0.30;0.30;;;;;;;3.74;83.42;99048.22;5045994;23;20262;-82
2021/01/20 04:39:41;;;;;;;0.30;0.30;;;;;;;3.66;83.34;99051.00;5047162;23;20212;-82
2021/01/20 04:42:14;;;;;;;0.40;0.40;;;;;;;3.65;83.40;99059.97;5030326;23;20222;-82
2021/01/20 04:45:14;;;;;;;0.37;0.37;;;;;;;3.46;83.86;99050.81;5026822;23;20227;-82
2021/01/20 04:47:53;;;;;;;0.40;0.40;;;;;;;3.50;83.64;99067.94;5028047;23;20247;-82
2021/01/20 04:50:47;;;;;;;0.30;0.30;;;;;;;3.32;83.60;99056.97;5009601;28;20260;-82
2021/01/20 04:53:41;;;;;;;0.40;0.40;;;;;;;3.34;83.80;99062.91;5017142;23;20194;-82
2021/01/20 04:56:18;;;;;;;0.37;0.37;;;;;;;3.28;84.01;99060.16;5017944;23;20232;-82
2021/01/20 04:58:56;;;;;;;0.40;0.40;;;;;;;3.25;83.49;99063.19;5045723;23;20226;-82
2021/01/20 05:01:33;;;;;;;0.30;0.30;;;;;;;3.13;83.70;99054.91;5021083;23;20238;-82
2021/01/20 05:04:28;;;;;;;0.40;0.40;;;;;;;3.05;84.05;99055.84;5035198;23;20249;-82
2021/01/20 05:07:20;;;;;;;0.30;0.30;;;;;;;2.95;84.25;99063.25;5055270;23;20221;-82
2021/01/20 05:10:38;;;;;;;0.40;0.40;;;;;;;2.79;84.28;99055.53;5058717;22;20219;-82
2021/01/20 05:13:34;;;;;;;0.40;0.40;;;;;;;2.87;85.21;99070.47;5003399;28;20160;-82
2021/01/20 05:16:42;;;;;;;0.30;0.30;;;;;;;2.84;85.37;99071.69;5048190;23;20233;-82
2021/01/20 05:19:57;;;;;;;0.40;0.40;;;;;;;2.84;86.03;99069.03;4491099;23;15076682;-83
2021/01/20 05:22:31;;;;;;;0.40;0.40;;;;;;;2.71;85.78;99060.91;5048414;23;20239;-83
2021/01/20 05:25:05;;;;;;;0.40;0.40;;;;;;;2.88;86.11;99072.94;5066086;23;20233;-83
2021/01/20 05:28:34;;;;;;;0.30;0.30;;;;;;;2.91;86.12;99080.50;5009111;23;20229;-82
2021/01/20 05:31:32;;;;;;;0.40;0.40;;;;;;;2.88;85.95;99083.53;5045201;23;20216;-82
2021/01/20 05:35:02;;;;;;;0.40;0.40;;;;;;;2.82;86.07;99073.66;5030114;23;20232;-82
2021/01/20 05:38:30;;;;;;;0.40;0.40;;;;;;;2.76;85.80;99079.69;5183789;23;20210;-82
2021/01/20 05:41:37;;;;;;;0.30;0.30;;;;;;;2.52;85.96;99042.97;5142380;23;20248;-83
2021/01/20 05:44:25;;;;;;;0.40;0.40;;;;;;;2.69;85.61;99067.38;5050259;23;20281;-82
2021/01/20 05:47:30;;;;;;;0.30;0.30;;;;;;;2.66;85.64;99084.41;5046176;23;20234;-81
2021/01/20 05:50:19;;;;;;;0.40;0.40;;;;;;;2.43;85.73;99041.38;5034008;23;20205;-82
2021/01/20 05:53:05;;;;;;;0.40;0.40;;;;;;;2.48;85.66;99091.91;5050296;23;20233;-83
2021/01/20 05:56:10;;;;;;;0.40;0.40;;;;;;;2.51;85.53;99087.09;5041489;28;20311;-82
2021/01/20 05:58:50;;;;;;;0.40;0.40;;;;;;;2.44;85.50;99090.63;5058974;22;20155;-82
2021/01/20 06:01:34;;;;;;;0.40;0.40;;;;;;;2.30;86.31;99094.88;5062188;23;20227;-82
2021/01/20 06:04:09;;;;;;;0.40;0.40;;;;;;;2.27;86.45;99105.81;5080923;23;20249;-82
2021/01/20 06:07:20;;;;;;;0.40;0.40;;;;;;;1.85;86.29;99055.31;5026399;23;20226;-81
2021/01/20 06:10:42;;;;;;;0.40;0.40;;;;;;;2.04;86.78;99091.81;5077415;22;20664;-82
2021/01/20 06:13:15;;;;;;;0.40;0.40;;;;;;;1.94;86.97;99085.97;5039910;28;20217;-82
2021/01/20 06:16:41;;;;;;;0.40;0.40;;;;;;;1.94;87.28;99107.09;5065007;22;20228;-81
2021/01/20 06:20:20;;;;;;;0.40;0.40;;;;;;;1.82;86.50;99085.53;5078777;22;20236;-82
2021/01/20 06:23:06;;;;;;;0.40;0.40;;;;;;;1.92;86.92;99106.44;5062992;22;21348;-82
2021/01/20 06:26:16;;;;;;;0.40;0.40;;;;;;;1.65;86.96;99079.56;5036385;23;20233;-82
2021/01/20 06:29:12;;;;;;;0.40;0.40;;;;;;;1.60;87.86;99071.34;5017482;28;20278;-82
2021/01/20 06:32:06;;;;;;;0.40;0.40;;;;;;;1.54;87.15;99084.44;5185341;23;20232;-82
2021/01/20 06:35:42;;;;;;;0.40;0.40;;;;;;;1.74;87.16;99118.13;5041868;23;20217;-82
2021/01/20 06:38:54;;;;;;;0.30;0.30;;;;;;;1.69;87.37;99124.94;5025358;23;20205;-82
2021/01/20 06:41:41;;;;;;;0.37;0.37;;;;;;;1.57;86.73;99123.69;5033189;23;20276;-82
2021/01/20 06:44:27;;;;;;;0.40;0.40;;;;;;;1.44;86.73;99119.00;5034492;23;20213;-82
2021/01/20 06:47:12;;;;;;;0.30;0.30;;;;;;;1.34;87.10;99115.75;5033761;28;20237;-82
2021/01/20 06:50:10;;;;;;;0.40;0.40;;;;;;;1.47;87.63;99134.47;5059208;22;20205;-82
2021/01/20 06:53:10;;;;;;;0.40;0.40;;;;;;;1.45;87.47;99133.00;5055649;23;20232;-80
2021/01/20 06:55:46;;;;;;;0.40;0.40;;;;;;;1.43;88.04;99125.25;5033686;28;20236;-82
2021/01/20 06:58:38;;;;;;;0.40;0.40;;;;;;;1.45;87.79;99119.78;5042190;23;20229;-82
2021/01/20 07:05:10;;;;;;;0.40;0.40;;;;;;;1.42;87.69;99131.53;5052701;28;20227;-83
2021/01/20 07:08:26;;;;;;;0.40;0.40;;;;;;;1.48;87.64;99144.03;5054196;28;20244;-83
2021/01/20 07:11:30;;;;;;;0.30;0.30;;;;;;;1.44;87.79;99124.28;5002371;28;20224;-81
2021/01/20 07:13:58;;;;;;;0.40;0.40;;;;;;;1.57;88.12;99147.47;5030937;28;20250;-83
2021/01/20 07:16:27;;;;;;;0.40;0.40;;;;;;;1.55;88.09;99136.22;5043938;28;20233;-82
2021/01/20 07:18:57;;;;;;;0.40;0.40;;;;;;;1.63;88.17;99137.00;5045008;28;20228;-82
2021/01/20 07:24:27;;;;;;;0.37;0.37;;;;;;;1.70;87.96;99135.31;5167135;23;20251;-83
2021/01/20 07:27:18;;;;;;;0.40;0.40;;;;;;;1.74;88.11;99109.38;5422241;23;20197;-82
2021/01/20 07:30:43;;;;;;;0.40;0.40;;;;;;;1.94;87.07;99121.13;5136605;23;20283;-82
2021/01/20 07:33:19;;;;;;;0.40;0.40;;;;;;;2.00;87.42;99115.16;5003323;28;20204;-81
2021/01/20 07:36:26;;;;;;;0.30;0.30;;;;;;;2.33;87.57;99149.22;5024924;23;20221;-81
2021/01/20 07:46:22;;;;;;;0.40;0.40;;;;;;;2.63;86.72;99159.69;4999431;23;20219;-82
2021/01/20 07:49:29;;;;;;;0.40;0.40;;;;;;;2.64;87.16;99142.00;5024833;23;20212;-82
2021/01/20 07:52:15;;;;;;;0.40;0.40;;;;;;;2.69;86.25;99131.69;5019910;28;20279;-82
2021/01/20 07:55:01;;;;;;;0.40;0.40;;;;;;;2.84;86.55;99151.03;5013511;23;20255;-83
2021/01/20 07:57:32;;;;;;;0.40;0.40;;;;;;;2.96;85.90;99151.41;5004419;23;20290;-82
2021/01/20 08:00:28;;;;;;;0.40;0.40;;;;;;;3.21;85.93;99171.31;5018606;23;20217;-82
2021/01/20 08:06:57;;;;;;;0.40;0.40;;;;;;;3.54;84.49;99184.97;5132465;23;20229;-83
2021/01/20 08:09:45;;;;;;;0.30;0.30;;;;;;;3.66;83.45;99193.25;4990005;23;20281;-83
2021/01/20 08:12:33;;;;;;;0.40;0.40;;;;;;;3.76;82.91;99180.53;5200246;23;20254;-82
2021/01/20 08:15:23;;;;;;;0.40;0.40;;;;;;;3.81;82.91;99170.19;5046766;23;20232;-83
2021/01/20 08:19:13;;;;;;;0.40;0.40;;;;;;;4.04;81.65;99180.63;1386170;23;20213;-84
2021/01/20 08:22:44;;;;;;;0.40;0.40;;;;;;;4.05;80.58;99155.75;5153099;23;20801;-83
2021/01/20 08:25:30;;;;;;;0.30;0.30;;;;;;;4.13;80.12;99164.41;5007491;23;20227;-83
2021/01/20 08:28:25;;;;;;;0.30;0.30;;;;;;;4.39;79.57;99180.53;5017650;23;20240;-83
2021/01/20 08:35:13;;;;;;;0.30;0.30;;;;;;;4.65;78.49;99185.25;5030980;23;20237;-82
2021/01/20 08:37:45;;;;;;;0.37;0.37;;;;;;;4.72;78.53;99185.28;4989397;23;20288;-84
2021/01/20 08:45:43;;;;;;;0.40;0.40;;;;;;;4.93;77.62;99192.41;5025275;23;20206;-82
2021/01/20 08:49:09;;;;;;;0.40;0.40;;;;;;;4.88;76.70;99171.75;5068992;23;20304;-82
2021/01/20 08:55:56;;;;;;;0.30;0.30;;;;;;;5.25;76.09;99176.66;5022900;23;20238;-83
2021/01/20 08:58:54;;;;;;;0.30;0.30;;;;;;;5.34;75.14;99174.66;5123922;23;20231;-83
2021/01/20 09:02:38;;;;;;;0.33;0.33;;;;;;;5.30;73.12;99176.91;5032400;23;21819;-82
2021/01/20 09:05:46;;;;;;;0.40;0.40;;;;;;;5.28;74.14;99152.38;5017612;23;20223;-83
2021/01/20 09:13:24;;;;;;;0.40;0.40;;;;;;;5.47;73.42;99169.41;5232730;23;20245;-83
2021/01/20 09:17:06;;;;;;;0.30;0.30;;;;;;;5.53;74.16;99173.94;5004301;23;20297;-82
2021/01/20 09:20:14;;;;;;;0.30;0.30;;;;;;;5.59;73.13;99162.53;5111332;23;20228;-83
2021/01/20 09:23:46;;;;;;;0.40;0.40;;;;;;;5.49;72.58;99134.69;5048473;23;20223;-83
2021/01/20 09:27:49;;;;;;;0.40;0.40;;;;;;;5.76;72.57;99147.03;5018697;23;20243;-82
2021/01/20 09:30:55;;;;;;;0.37;0.37;;;;;;;5.91;71.88;99158.38;5026018;23;20224;-83
2021/01/20 09:34:06;;;;;;;0.30;0.30;;;;;;;6.04;71.47;99153.06;5000526;23;20177;-83
2021/01/20 09:37:10;;;;;;;0.30;0.30;;;;;;;6.16;70.97;99154.09;5350771;23;20222;-82
2021/01/20 09:41:02;;;;;;;0.40;0.40;;;;;;;6.32;68.96;99138.78;5029185;23;20215;-83
2021/01/20 09:44:00;;;;;;;0.30;0.30;;;;;;;6.43;67.77;99138.16;5142413;23;20260;-83
2021/01/20 09:46:45;;;;;;;0.30;0.30;;;;;;;6.67;67.13;99142.06;5001336;28;20185;-82
2021/01/20 09:49:17;;;;;;;0.30;0.30;;;;;;;6.59;67.00;99117.28;5039571;23;20221;-82
2021/01/20 09:52:25;;;;;;;0.20;0.20;;;;;;;6.81;67.46;99111.72;5075272;23;20265;-82
2021/01/20 09:55:40;;;;;;;0.30;0.30;;;;;;;7.16;65.62;99128.22;4997324;28;20211;-82
2021/01/20 10:01:49;;;;;;;0.30;0.30;;;;;;;7.52;64.74;99112.50;5013691;23;20225;-83
2021/01/20 10:05:16;;;;;;;0.30;0.30;;;;;;;7.79;63.63;99115.88;5013264;23;20301;-83
2021/01/20 10:08:02;;;;;;;0.30;0.30;;;;;;;7.88;62.84;99104.72;5128662;23;20237;-83
2021/01/20 10:14:09;;;;;;;0.20;0.20;;;;;;;8.29;61.58;99092.72;5038799;23;20243;-82
2021/01/20 10:16:48;;;;;;;0.30;0.30;;;;;;;8.29;61.87;99082.91;5045951;23;20253;-83
2021/01/20 10:20:23;;;;;;;0.20;0.20;;;;;;;8.34;60.65;99083.06;5041250;23;20213;-83
2021/01/20 10:23:47;;;;;;;0.30;0.30;;;;;;;8.69;60.02;99109.25;5041463;23;20225;-82
2021/01/20 10:27:13;;;;;;;0.30;0.30;;;;;;;8.80;58.31;99109.34;5027490;23;20255;-82
2021/01/20 10:29:51;;;;;;;0.30;0.30;;;;;;;8.71;57.39;99069.78;5038013;23;20259;-81
2021/01/20 10:33:16;;;;;;;0.30;0.30;;;;;;;9.03;56.65;99092.66;5026535;28;20178;-82
2021/01/20 10:35:49;;;;;;;0.30;0.30;;;;;;;9.03;57.47;99075.81;5051163;23;20234;-82
2021/01/20 10:38:33;;;;;;;0.30;0.30;;;;;;;9.20;58.42;99092.88;5157707;23;20255;-82
2021/01/20 10:41:19;;;;;;;0.30;0.30;;;;;;;9.22;57.82;99090.81;5074577;23;20227;-82
2021/01/20 10:43:59;;;;;;;0.20;0.20;;;;;;;9.37;57.43;99083.22;5020876;23;20229;-82
2021/01/20 10:46:34;;;;;;;0.20;0.20;;;;;;;9.38;56.34;99084.03;5038013;23;20233;-81
2021/01/20 10:49:27;;;;;;;0.30;0.30;;;;;;;9.41;56.22;99073.72;5049259;23;20244;31
2021/01/20 10:51:56;;;;;;;0.20;0.20;;;;;;;9.41;55.86;99062.19;4975118;29;20225;-82
2021/01/20 10:54:30;;;;;;;0.20;0.20;;;;;;;9.45;55.84;99060.69;5015270;23;20241;-81
2021/01/20 10:57:14;;;;;;;0.20;0.20;;;;;;;9.54;55.04;99065.50;5040832;23;20259;-82
2021/01/20 11:00:07;;;;;;;0.20;0.20;;;;;;;9.69;55.33;99073.13;5035180;28;20238;-82
2021/01/20 11:02:37;;;;;;;0.20;0.20;;;;;;;9.75;54.94;99056.19;5040941;23;20225;-82
2021/01/20 11:05:26;;;;;;;0.20;0.20;;;;;;;9.86;53.95;99050.03;5012436;23;20252;-82
2021/01/20 11:07:55;;;;;;;0.30;0.30;;;;;;;10.03;54.06;99060.91;4993778;23;20271;-82
2021/01/20 11:10:24;;;;;;;0.20;0.20;;;;;;;10.02;53.62;99044.03;5035887;23;20236;-82
2021/01/20 11:12:51;;;;;;;0.20;0.20;;;;;;;10.20;52.89;99050.34;5012444;28;20193;-82
2021/01/20 11:15:18;;;;;;;0.20;0.20;;;;;;;10.30;53.73;99045.25;5010619;23;20237;-82
2021/01/20 11:17:59;;;;;;;0.23;0.23;;;;;;;10.32;54.08;99043.13;5009178;23;20225;-81
2021/01/20 11:20:42;;;;;;;0.20;0.20;;;;;;;10.41;60.31;99039.88;5017449;28;20220;-82
2021/01/20 11:23:20;;;;;;;0.20;0.20;;;;;;;10.44;63.11;99031.41;5031344;28;20237;-82
2021/01/20 11:25:50;;;;;;;0.20;0.20;;;;;;;10.47;64.20;99033.59;5031743;28;20292;-83
2021/01/20 11:28:17;;;;;;;0.20;0.20;;;;;;;10.42;64.72;99025.47;5010210;23;20489;-82
2021/01/20 11:31:07;;;;;;;0.23;0.23;;;;;;;10.47;62.62;99035.47;4988559;23;20230;-83
2021/01/20 11:33:59;;;;;;;0.20;0.20;;;;;;;10.33;64.29;99018.81;5011110;28;20242;-82
2021/01/20 11:36:27;;;;;;;0.20;0.20;;;;;;;10.06;64.12;99005.03;5011721;28;20583;-83
2021/01/20 11:38:54;;;;;;;0.20;0.20;;;;;;;9.97;64.00;99008.28;5040126;23;20233;-82
2021/01/20 11:41:24;;;;;;;0.20;0.20;;;;;;;10.09;63.30;99022.50;5000556;23;20261;-82
2021/01/20 11:44:11;;;;;;;0.20;0.20;;;;;;;9.90;62.95;98999.53;5000514;23;20231;-83
2021/01/20 11:46:55;;;;;;;0.20;0.20;;;;;;;9.89;62.67;98993.38;4983766;28;20249;-82
2021/01/20 11:49:22;;;;;;;0.20;0.20;;;;;;;9.99;62.43;99011.53;5010213;23;20250;-82
2021/01/20 11:51:52;;;;;;;0.20;0.20;;;;;;;9.97;62.58;99008.28;5002028;28;20248;-82
2021/01/20 11:54:21;;;;;;;0.20;0.20;;;;;;;9.88;62.63;98988.25;5014748;28;20239;-83
2021/01/20 11:56:49;;;;;;;0.20;0.20;;;;;;;9.79;62.32;98995.00;5010535;23;20244;-83
2021/01/20 11:59:20;;;;;;;0.20;0.20;;;;;;;9.72;62.77;98963.81;5020622;28;20215;-84
2021/01/20 12:01:46;;;;;;;0.27;0.27;;;;;;;9.79;61.91;98985.13;5038526;28;20194;-81
2021/01/20 12:04:37;;;;;;;0.20;0.20;;;;;;;9.91;62.87;99011.88;5029476;28;20249;-82
2021/01/20 12:07:22;;;;;;;0.20;0.20;;;;;;;9.88;63.12;98980.25;5038047;23;20307;-81
2021/01/20 12:09:55;;;;;;;0.20;0.20;;;;;;;9.86;62.91;98987.66;5092925;23;20237;-84
2021/01/20 12:12:38;;;;;;;0.20;0.20;;;;;;;9.86;63.43;98987.66;5022411;28;20246;-85
2021/01/20 12:15:09;;;;;;;0.20;0.20;;;;;;;9.89;63.22;98985.34;5038394;28;20243;-84
2021/01/20 12:17:44;;;;;;;0.30;0.30;;;;;;;9.73;62.97;98960.09;5041452;23;20226;-83
2021/01/20 12:20:17;;;;;;;0.20;0.20;;;;;;;9.76;63.09;98969.50;5021319;28;20195;-83
2021/01/20 12:23:21;;;;;;;0.20;0.20;;;;;;;10.01;63.49;98977.34;5036574;23;20261;-82
2021/01/20 12:26:10;;;;;;;0.20;0.20;;;;;;;9.84;62.87;98949.66;5028370;23;20243;-85
2021/01/20 12:28:53;;;;;;;0.13;0.13;;;;;;;9.94;62.36;98965.91;5036616;28;20216;-83
2021/01/20 12:31:47;;;;;;;0.20;0.20;;;;;;;10.06;62.62;98972.09;5149440;22;20242;31
2021/01/20 12:34:31;;;;;;;0.20;0.20;;;;;;;10.04;61.40;98952.78;5095301;23;20233;-82
2021/01/20 12:37:37;;;;;;;0.30;0.30;;;;;;;10.17;61.83;98963.31;5018944;23;20239;-83
2021/01/20 12:40:22;;;;;;;0.30;0.30;;;;;;;10.10;59.00;98947.31;5266624;23;20255;-82
2021/01/20 12:43:15;;;;;;;0.20;0.20;;;;;;;10.05;55.05;98941.03;5037953;23;20236;-82
2021/01/20 12:46:08;;;;;;;0.20;0.20;;;;;;;9.99;55.04;98949.97;5114340;23;20252;-82
2021/01/20 12:49:08;;;;;;;0.20;0.20;;;;;;;9.98;54.06;98954.56;5023880;23;20231;-82
2021/01/20 12:52:05;;;;;;;0.20;0.20;;;;;;;9.96;53.99;98953.13;5046979;23;20212;-83
2021/01/20 12:58:32;;;;;;;0.20;0.20;;;;;;;9.66;52.91;98935.28;5009172;23;20418;-82
2021/01/20 13:04:41;;;;;;;0.23;0.23;;;;;;;9.48;54.08;98910.50;5013210;23;20247;-82
2021/01/20 13:07:11;;;;;;;0.30;0.30;;;;;;;9.62;54.07;98927.97;5098070;23;20251;-81
2021/01/20 13:09:38;;;;;;;0.30;0.30;;;;;;;9.60;54.15;98927.41;5040567;23;20220;-82
2021/01/20 13:12:27;;;;;;;0.20;0.20;;;;;;;9.76;54.10;98936.59;5007486;23;20227;-81
2021/01/20 13:14:59;;;;;;;0.20;0.20;;;;;;;9.75;54.44;98934.97;4997667;23;20241;-81
2021/01/20 13:17:42;;;;;;;0.20;0.20;;;;;;;9.71;54.49;98921.22;5031248;23;20224;-81
2021/01/20 13:20:33;;;;;;;0.20;0.20;;;;;;;9.71;54.62;98911.34;5013935;23;20245;-82
2021/01/20 13:23:28;;;;;;;0.20;0.20;;;;;;;9.77;54.49;98904.25;5014914;23;20237;-81
2021/01/20 13:26:55;;;;;;;0.20;0.20;;;;;;;9.74;54.15;98894.03;4996348;23;20224;-82
2021/01/20 13:33:22;;;;;;;0.30;0.30;;;;;;;9.87;55.34;98909.03;5062703;22;20229;-81
2021/01/20 13:36:18;;;;;;;0.20;0.20;;;;;;;9.84;55.85;98899.63;5028116;23;20280;-81
2021/01/20 13:39:11;;;;;;;0.30;0.30;;;;;;;9.96;56.40;98911.13;5031601;23;20324;-82
2021/01/20 13:41:46;;;;;;;0.20;0.20;;;;;;;9.79;57.05;98899.50;4984028;28;20228;-81
2021/01/20 13:44:26;;;;;;;0.20;0.20;;;;;;;9.83;57.77;98889.97;5005184;23;20276;-81
2021/01/20 13:47:18;;;;;;;0.20;0.20;;;;;;;9.76;58.54;98878.56;5132681;22;20222;-82
2021/01/20 13:50:09;;;;;;;0.20;0.20;;;;;;;9.73;58.47;98873.69;5027667;23;20299;-81
2021/01/20 13:52:35;;;;;;;0.30;0.30;;;;;;;9.93;58.47;98890.19;5006029;23;20229;-82
2021/01/20 13:55:16;;;;;;;0.20;0.20;;;;;;;9.94;58.91;98889.13;5033592;28;20221;-81
2021/01/20 13:58:06;;;;;;;0.20;0.20;;;;;;;9.81;58.86;98862.63;5066625;23;20227;-81
2021/01/20 14:01:06;;;;;;;0.20;0.20;;;;;;;9.84;58.61;98875.56;5026735;23;20548;-81
2021/01/20 14:03:47;;;;;;;0.20;0.20;;;;;;;9.87;58.77;98882.28;4993526;28;20236;-81
2021/01/20 14:06:23;;;;;;;0.20;0.20;;;;;;;9.93;58.75;98890.19;4992859;23;20264;-80
2021/01/20 14:09:02;;;;;;;0.20;0.20;;;;;;;9.90;58.74;98881.81;5036172;23;20234;-81
2021/01/20 14:11:39;;;;;;;0.20;0.20;;;;;;;9.90;58.54;98889.84;5008221;28;20242;-81
2021/01/20 14:14:06;;;;;;;0.30;0.30;;;;;;;9.79;57.85;98872.75;5018278;28;20243;-82
2021/01/20 14:16:35;;;;;;;0.30;0.30;;;;;;;9.81;58.34;98889.38;5018451;28;20217;-84
2021/01/20 14:19:07;;;;;;;0.20;0.20;;;;;;;9.63;58.24;98868.91;5033227;28;20243;-84
2021/01/20 14:21:59;;;;;;;0.20;0.20;;;;;;;9.62;59.00;98877.97;5029435;28;20229;-83
2021/01/20 14:24:35;;;;;;;0.20;0.20;;;;;;;9.73;58.48;98874.50;5013990;28;20233;-84
2021/01/20 14:27:08;;;;;;;0.20;0.20;;;;;;;9.58;58.09;98867.97;5028282;28;20233;-84
2021/01/20 14:29:44;;;;;;;0.20;0.20;;;;;;;9.60;58.44;98871.22;5017965;23;20256;-84
2021/01/20 14:32:17;;;;;;;0.30;0.30;;;;;;;9.45;56.77;98852.16;5024187;23;20236;-84
2021/01/20 14:34:53;;;;;;;0.20;0.20;;;;;;;9.39;55.96;98848.53;4998187;28;20213;-84
2021/01/20 14:37:49;;;;;;;0.30;0.30;;;;;;;9.35;55.74;98867.94;5015263;23;20241;-81
2021/01/20 14:40:21;;;;;;;0.30;0.30;;;;;;;9.06;55.39;98829.53;5010617;28;20570;-81
2021/01/20 14:43:48;;;;;;;0.30;0.30;;;;;;;9.10;55.67;98854.75;5101066;22;20220;-84
2021/01/20 14:46:18;;;;;;;0.20;0.20;;;;;;;8.99;55.65;98843.00;4974245;23;20293;-83
2021/01/20 14:48:53;;;;;;;0.30;0.30;;;;;;;8.91;55.93;98843.31;4953402;29;20239;-83
2021/01/20 14:51:50;;;;;;;0.20;0.20;;;;;;;8.79;55.45;98832.59;4963073;29;20230;-84